sensor_id;sensor_type;location;lat;lon;timestamp;pressure;altitude;pressure_sealevel;temperature;humidity
14800;BME280;7491;57.750;11.970;2023-12-14T00:00:10;77566.44;;;-142.11;100.00
14800;BME280;7491;57.750;11.970;2023-12-14T00:02:38;77560.31;;;-142.11;100.00
14800;BME280;7491;57.750;11.970;2023-12-14T00:05:05;77588.88;;;-142.11;100.00
14800;BME280;7491;57.750;11.970;2023-12-14T00:07:32;77597.03;;;-142.11;100.00
14800;BME280;7491;57.750;11.970;2023-12-14T00:09:57;77586.84;;;-142.11;100.00
14800;BME280;7491;57.750;11.970;2023-12-14T00:12:24;77611.31;;;-142.11;100.00
14800;BME280;7491;57.750;11.970;2023-12-14T00:14:51;77607.22;;;-142.11;100.00
14800;BME280;7491;57.750;11.970;2023-12-14T00:17:19;77590.91;;;-142.11;100.00
14800;BME280;7491;57.750;11.970;2023-12-14T00:19:45;77576.63;;;-142.11;100.00
14800;BME280;7491;57.750;11.970;2023-12-14T00:22:12;77599.06;;;-142.11;100.00
14800;BME280;7491;57.750;11.970;2023-12-14T00:24:39;77613.34;;;-142.11;100.00
14800;BME280;7491;57.750;11.970;2023-12-14T00:27:05;77623.53;;;-142.11;100.00
14800;BME280;7491;57.750;11.970;2023-12-14T00:29:32;77595.00;;;-142.11;100.00
14800;BME280;7491;57.750;11.970;2023-12-14T00:31:58;77601.13;;;-142.11;100.00
14800;BME280;7491;57.750;11.970;2023-12-14T00:34:26;77615.38;;;-142.11;100.00
14800;BME280;7491;57.750;11.970;2023-12-14T00:36:53;77609.28;;;-142.11;100.00
14800;BME280;7491;57.750;11.970;2023-12-14T00:39:20;77601.13;;;-142.11;100.00
14800;BME280;7491;57.750;11.970;2023-12-14T00:41:46;77597.03;;;-142.11;100.00
14800;BME280;7491;57.750;11.970;2023-12-14T00:44:13;77613.34;;;-142.11;100.00
14800;BME280;7491;57.750;11.970;2023-12-14T00:46:39;77621.50;;;-142.11;100.00
14800;BME280;7491;57.750;11.970;2023-12-14T00:49:07;77619.47;;;-142.11;100.00
14800;BME280;7491;57.750;11.970;2023-12-14T00:51:35;77611.31;;;-142.11;100.00
14800;BME280;7491;57.750;11.970;2023-12-14T00:54:03;77611.31;;;-142.11;100.00
14800;BME280;7491;57.750;11.970;2023-12-14T00:56:29;77625.59;;;-142.11;100.00
14800;BME280;7491;57.750;11.970;2023-12-14T00:58:56;77621.50;;;-142.11;100.00
14800;BME280;7491;57.750;11.970;2023-12-14T01:01:23;77605.19;;;-142.11;100.00
14800;BME280;7491;57.750;11.970;2023-12-14T01:03:49;77641.91;;;-142.11;100.00
14800;BME280;7491;57.750;11.970;2023-12-14T01:06:16;77627.63;;;-142.11;100.00
14800;BME280;7491;57.750;11.970;2023-12-14T01:08:44;77617.44;;;-142.11;100.00
14800;BME280;7491;57.750;11.970;2023-12-14T01:11:10;77613.34;;;-142.11;100.00
14800;BME280;7491;57.750;11.970;2023-12-14T01:13:37;77625.59;;;-142.11;100.00
14800;BME280;7491;57.750;11.970;2023-12-14T01:16:04;77641.91;;;-142.11;100.00
14800;BME280;7491;57.750;11.970;2023-12-14T01:18:31;77607.22;;;-142.11;100.00
14800;BME280;7491;57.750;11.970;2023-12-14T01:20:58;77607.22;;;-142.11;100.00
14800;BME280;7491;57.750;11.970;2023-12-14T01:23:24;77631.69;;;-142.11;100.00
14800;BME280;7491;57.750;11.970;2023-12-14T01:25:52;77615.38;;;-142.11;100.00
14800;BME280;7491;57.750;11.970;2023-12-14T01:28:19;77637.81;;;-142.11;100.00
14800;BME280;7491;57.750;11.970;2023-12-14T01:30:45;77639.88;;;-142.11;100.00
14800;BME280;7491;57.750;11.970;2023-12-14T01:33:12;77656.19;;;-142.11;100.00
14800;BME280;7491;57.750;11.970;2023-12-14T01:35:38;77635.78;;;-142.11;100.00
14800;BME280;7491;57.750;11.970;2023-12-14T01:38:05;77629.66;;;-142.11;100.00
14800;BME280;7491;57.750;11.970;2023-12-14T01:40:32;77625.59;;;-142.11;100.00
14800;BME280;7491;57.750;11.970;2023-12-14T01:43:08;77650.06;;;-142.11;100.00
14800;BME280;7491;57.750;11.970;2023-12-14T01:45:36;77660.25;;;-142.11;100.00
14800;BME280;7491;57.750;11.970;2023-12-14T01:48:03;77652.09;;;-142.11;100.00
14800;BME280;7491;57.750;11.970;2023-12-14T01:50:29;77635.78;;;-142.11;100.00
14800;BME280;7491;57.750;11.970;2023-12-14T01:52:56;77645.97;;;-142.11;100.00
14800;BME280;7491;57.750;11.970;2023-12-14T01:55:22;77633.75;;;-142.11;100.00
14800;BME280;7491;57.750;11.970;2023-12-14T01:57:51;77652.09;;;-142.11;100.00
14800;BME280;7491;57.750;11.970;2023-12-14T02:00:23;77660.25;;;-142.11;100.00
14800;BME280;7491;57.750;11.970;2023-12-14T02:02:51;77650.06;;;-142.11;100.00
14800;BME280;7491;57.750;11.970;2023-12-14T02:05:18;77633.75;;;-142.11;100.00
14800;BME280;7491;57.750;11.970;2023-12-14T02:07:44;77627.63;;;-142.11;100.00
14800;BME280;7491;57.750;11.970;2023-12-14T02:10:11;77605.19;;;-142.11;100.00
14800;BME280;7491;57.750;11.970;2023-12-14T02:12:38;77637.81;;;-142.11;100.00
14800;BME280;7491;57.750;11.970;2023-12-14T02:15:05;77629.66;;;-142.11;100.00
14800;BME280;7491;57.750;11.970;2023-12-14T02:17:33;77643.94;;;-142.11;100.00
14800;BME280;7491;57.750;11.970;2023-12-14T02:20:00;77641.91;;;-142.11;100.00
14800;BME280;7491;57.750;11.970;2023-12-14T02:22:27;77635.78;;;-142.11;100.00
14800;BME280;7491;57.750;11.970;2023-12-14T02:24:54;77637.81;;;-142.11;100.00
14800;BME280;7491;57.750;11.970;2023-12-14T02:27:21;77635.78;;;-142.11;100.00
14800;BME280;7491;57.750;11.970;2023-12-14T02:29:48;77641.91;;;-142.11;100.00
14800;BME280;7491;57.750;11.970;2023-12-14T02:32:14;77621.50;;;-142.11;100.00
14800;BME280;7491;57.750;11.970;2023-12-14T02:34:41;77656.19;;;-142.11;100.00
14800;BME280;7491;57.750;11.970;2023-12-14T02:37:07;77674.53;;;-142.11;100.00
14800;BME280;7491;57.750;11.970;2023-12-14T02:39:34;77637.81;;;-142.11;100.00
14800;BME280;7491;57.750;11.970;2023-12-14T02:42:02;77619.47;;;-142.11;100.00
14800;BME280;7491;57.750;11.970;2023-12-14T02:44:29;77633.75;;;-142.11;100.00
14800;BME280;7491;57.750;11.970;2023-12-14T02:46:55;77613.34;;;-142.11;100.00
14800;BME280;7491;57.750;11.970;2023-12-14T02:49:22;77609.28;;;-142.11;100.00
14800;BME280;7491;57.750;11.970;2023-12-14T02:51:48;77617.44;;;-142.11;100.00
14800;BME280;7491;57.750;11.970;2023-12-14T02:54:15;77619.47;;;-142.11;100.00
14800;BME280;7491;57.750;11.970;2023-12-14T02:56:42;77613.34;;;-142.11;100.00
14800;BME280;7491;57.750;11.970;2023-12-14T02:59:10;77621.50;;;-142.11;100.00
14800;BME280;7491;57.750;11.970;2023-12-14T03:01:37;77623.53;;;-142.11;100.00
14800;BME280;7491;57.750;11.970;2023-12-14T03:04:04;77619.47;;;-142.11;100.00
14800;BME280;7491;57.750;11.970;2023-12-14T03:06:31;77631.69;;;-142.11;100.00
14800;BME280;7491;57.750;11.970;2023-12-14T03:08:58;77633.75;;;-142.11;100.00
14800;BME280;7491;57.750;11.970;2023-12-14T03:11:24;77617.44;;;-142.11;100.00
14800;BME280;7491;57.750;11.970;2023-12-14T03:13:51;77629.66;;;-142.11;100.00
14800;BME280;7491;57.750;11.970;2023-12-14T03:16:19;77641.91;;;-142.11;100.00
14800;BME280;7491;57.750;11.970;2023-12-14T03:18:46;77641.91;;;-142.11;100.00
14800;BME280;7491;57.750;11.970;2023-12-14T03:21:14;77639.88;;;-142.11;100.00
14800;BME280;7491;57.750;11.970;2023-12-14T03:23:41;77623.53;;;-142.11;100.00
14800;BME280;7491;57.750;11.970;2023-12-14T03:26:07;77639.88;;;-142.11;100.00
14800;BME280;7491;57.750;11.970;2023-12-14T03:28:34;77609.28;;;-142.11;100.00
14800;BME280;7491;57.750;11.970;2023-12-14T03:31:01;77629.66;;;-142.11;100.00
14800;BME280;7491;57.750;11.970;2023-12-14T03:33:29;77645.97;;;-142.11;100.00
14800;BME280;7491;57.750;11.970;2023-12-14T03:35:55;77629.66;;;-142.11;100.00
14800;BME280;7491;57.750;11.970;2023-12-14T03:38:22;77627.63;;;-142.11;100.00
14800;BME280;7491;57.750;11.970;2023-12-14T03:40:48;77627.63;;;-142.11;100.00
14800;BME280;7491;57.750;11.970;2023-12-14T03:43:15;77621.50;;;-142.11;100.00
14800;BME280;7491;57.750;11.970;2023-12-14T03:45:42;77597.03;;;-142.11;100.00
14800;BME280;7491;57.750;11.970;2023-12-14T03:48:08;77615.38;;;-142.11;100.00
14800;BME280;7491;57.750;11.970;2023-12-14T03:50:36;77611.31;;;-142.11;100.00
14800;BME280;7491;57.750;11.970;2023-12-14T03:53:03;77619.47;;;-142.11;100.00
14800;BME280;7491;57.750;11.970;2023-12-14T03:55:29;77629.66;;;-142.11;100.00
14800;BME280;7491;57.750;11.970;2023-12-14T03:57:56;77639.88;;;-142.11;100.00
14800;BME280;7491;57.750;11.970;2023-12-14T04:00:23;77631.69;;;-142.11;100.00
14800;BME280;7491;57.750;11.970;2023-12-14T04:02:49;77619.47;;;-142.11;100.00
14800;BME280;7491;57.750;11.970;2023-12-14T04:05:16;77631.69;;;-142.11;100.00
14800;BME280;7491;57.750;11.970;2023-12-14T04:07:44;77607.22;;;-142.11;100.00
14800;BME280;7491;57.750;11.970;2023-12-14T04:10:11;77601.13;;;-142.11;100.00
14800;BME280;7491;57.750;11.970;2023-12-14T04:12:38;77592.94;;;-142.11;100.00
14800;BME280;7491;57.750;11.970;2023-12-14T04:15:06;77605.19;;;-142.11;100.00
14800;BME280;7491;57.750;11.970;2023-12-14T04:17:33;77603.16;;;-142.11;100.00
14800;BME280;7491;57.750;11.970;2023-12-14T04:20:01;77582.75;;;-142.11;100.00
14800;BME280;7491;57.750;11.970;2023-12-14T04:22:28;77603.16;;;-142.11;100.00
14800;BME280;7491;57.750;11.970;2023-12-14T04:24:56;77601.13;;;-142.11;100.00
14800;BME280;7491;57.750;11.970;2023-12-14T04:27:23;77590.91;;;-142.11;100.00
14800;BME280;7491;57.750;11.970;2023-12-14T04:29:53;77603.16;;;-142.11;100.00
14800;BME280;7491;57.750;11.970;2023-12-14T04:32:20;77603.16;;;-142.11;100.00
14800;BME280;7491;57.750;11.970;2023-12-14T04:34:45;77625.59;;;-142.11;100.00
14800;BME280;7491;57.750;11.970;2023-12-14T04:37:12;77599.06;;;-142.11;100.00
14800;BME280;7491;57.750;11.970;2023-12-14T04:39:39;77615.38;;;-142.11;100.00
14800;BME280;7491;57.750;11.970;2023-12-14T04:42:07;77603.16;;;-142.11;100.00
14800;BME280;7491;57.750;11.970;2023-12-14T04:44:33;77621.50;;;-142.11;100.00
14800;BME280;7491;57.750;11.970;2023-12-14T04:47:01;77595.00;;;-142.11;100.00
14800;BME280;7491;57.750;11.970;2023-12-14T04:49:28;77623.53;;;-142.11;100.00
14800;BME280;7491;57.750;11.970;2023-12-14T04:51:54;77611.31;;;-142.11;100.00
14800;BME280;7491;57.750;11.970;2023-12-14T04:54:21;77607.22;;;-142.11;100.00
14800;BME280;7491;57.750;11.970;2023-12-14T04:56:48;77615.38;;;-142.11;100.00
14800;BME280;7491;57.750;11.970;2023-12-14T04:59:16;77631.69;;;-142.11;100.00
14800;BME280;7491;57.750;11.970;2023-12-14T05:01:42;77629.66;;;-142.11;100.00
14800;BME280;7491;57.750;11.970;2023-12-14T05:04:09;77654.13;;;-142.11;100.00
14800;BME280;7491;57.750;11.970;2023-12-14T05:06:38;77639.88;;;-142.11;100.00
14800;BME280;7491;57.750;11.970;2023-12-14T05:09:04;77637.81;;;-142.11;100.00
14800;BME280;7491;57.750;11.970;2023-12-14T05:11:32;77617.44;;;-142.11;100.00
14800;BME280;7491;57.750;11.970;2023-12-14T05:13:58;77615.38;;;-142.11;100.00
14800;BME280;7491;57.750;11.970;2023-12-14T05:16:26;77641.91;;;-142.11;100.00
14800;BME280;7491;57.750;11.970;2023-12-14T05:18:53;77627.63;;;-142.11;100.00
14800;BME280;7491;57.750;11.970;2023-12-14T05:21:20;77621.50;;;-142.11;100.00
14800;BME280;7491;57.750;11.970;2023-12-14T05:23:46;77633.75;;;-142.11;100.00
14800;BME280;7491;57.750;11.970;2023-12-14T05:26:13;77641.91;;;-142.11;100.00
14800;BME280;7491;57.750;11.970;2023-12-14T05:28:39;77611.31;;;-142.11;100.00
14800;BME280;7491;57.750;11.970;2023-12-14T05:31:06;77595.00;;;-142.11;100.00
14800;BME280;7491;57.750;11.970;2023-12-14T05:33:37;77584.78;;;-142.11;100.00
14800;BME280;7491;57.750;11.970;2023-12-14T05:36:04;77590.91;;;-142.11;100.00
14800;BME280;7491;57.750;11.970;2023-12-14T05:38:34;77607.22;;;-142.11;100.00
14800;BME280;7491;57.750;11.970;2023-12-14T05:41:00;77625.59;;;-142.11;100.00
14800;BME280;7491;57.750;11.970;2023-12-14T05:43:27;77615.38;;;-142.11;100.00
14800;BME280;7491;57.750;11.970;2023-12-14T05:45:54;77639.88;;;-142.11;100.00
14800;BME280;7491;57.750;11.970;2023-12-14T05:48:20;77621.50;;;-142.11;100.00
14800;BME280;7491;57.750;11.970;2023-12-14T05:50:48;77611.31;;;-142.11;100.00
14800;BME280;7491;57.750;11.970;2023-12-14T05:53:15;77597.03;;;-142.11;100.00
14800;BME280;7491;57.750;11.970;2023-12-14T05:55:42;77595.00;;;-142.11;100.00
14800;BME280;7491;57.750;11.970;2023-12-14T05:58:09;77582.75;;;-142.11;100.00
14800;BME280;7491;57.750;11.970;2023-12-14T06:00:35;77597.03;;;-142.11;100.00
14800;BME280;7491;57.750;11.970;2023-12-14T06:03:02;77609.28;;;-142.11;100.00
14800;BME280;7491;57.750;11.970;2023-12-14T06:05:29;77592.94;;;-142.11;100.00
14800;BME280;7491;57.750;11.970;2023-12-14T06:07:57;77599.06;;;-142.11;100.00
14800;BME280;7491;57.750;11.970;2023-12-14T06:10:24;77605.19;;;-142.11;100.00
14800;BME280;7491;57.750;11.970;2023-12-14T06:12:51;77599.06;;;-142.11;100.00
14800;BME280;7491;57.750;11.970;2023-12-14T06:15:17;77621.50;;;-142.11;100.00
14800;BME280;7491;57.750;11.970;2023-12-14T06:17:44;77603.16;;;-142.11;100.00
14800;BME280;7491;57.750;11.970;2023-12-14T06:20:11;77597.03;;;-142.11;100.00
14800;BME280;7491;57.750;11.970;2023-12-14T06:22:39;77592.94;;;-142.11;100.00
14800;BME280;7491;57.750;11.970;2023-12-14T06:25:07;77601.13;;;-142.11;100.00
14800;BME280;7491;57.750;11.970;2023-12-14T06:27:34;77611.31;;;-142.11;100.00
14800;BME280;7491;57.750;11.970;2023-12-14T06:30:01;77641.91;;;-142.11;100.00
14800;BME280;7491;57.750;11.970;2023-12-14T06:32:28;77635.78;;;-142.11;100.00
14800;BME280;7491;57.750;11.970;2023-12-14T06:34:54;77621.50;;;-142.11;100.00
14800;BME280;7491;57.750;11.970;2023-12-14T06:37:21;77621.50;;;-142.11;100.00
14800;BME280;7491;57.750;11.970;2023-12-14T06:39:47;77637.81;;;-142.11;100.00
14800;BME280;7491;57.750;11.970;2023-12-14T06:42:15;77650.06;;;-142.11;100.00
14800;BME280;7491;57.750;11.970;2023-12-14T06:44:42;77656.19;;;-142.11;100.00
14800;BME280;7491;57.750;11.970;2023-12-14T06:47:09;77662.28;;;-142.11;100.00
14800;BME280;7491;57.750;11.970;2023-12-14T06:49:35;77664.34;;;-142.11;100.00
14800;BME280;7491;57.750;11.970;2023-12-14T06:52:02;77664.34;;;-142.11;100.00
14800;BME280;7491;57.750;11.970;2023-12-14T06:54:29;77645.97;;;-142.11;100.00
14800;BME280;7491;57.750;11.970;2023-12-14T06:56:55;77654.13;;;-142.11;100.00
14800;BME280;7491;57.750;11.970;2023-12-14T06:59:23;77652.09;;;-142.11;100.00
14800;BME280;7491;57.750;11.970;2023-12-14T07:01:50;77645.97;;;-142.11;100.00
14800;BME280;7491;57.750;11.970;2023-12-14T07:04:17;77631.69;;;-142.11;100.00
14800;BME280;7491;57.750;11.970;2023-12-14T07:06:50;77631.69;;;-142.11;100.00
14800;BME280;7491;57.750;11.970;2023-12-14T07:09:16;77652.09;;;-142.11;100.00
14800;BME280;7491;57.750;11.970;2023-12-14T07:11:43;77639.88;;;-142.11;100.00
14800;BME280;7491;57.750;11.970;2023-12-14T07:14:10;77625.59;;;-142.11;100.00
14800;BME280;7491;57.750;11.970;2023-12-14T07:16:38;77633.75;;;-142.11;100.00
14800;BME280;7491;57.750;11.970;2023-12-14T07:19:04;77631.69;;;-142.11;100.00
14800;BME280;7491;57.750;11.970;2023-12-14T07:21:31;77621.50;;;-142.11;100.00
14800;BME280;7491;57.750;11.970;2023-12-14T07:23:58;77629.66;;;-142.11;100.00
14800;BME280;7491;57.750;11.970;2023-12-14T07:26:24;77623.53;;;-142.11;100.00
14800;BME280;7491;57.750;11.970;2023-12-14T07:28:53;77643.94;;;-142.11;100.00
14800;BME280;7491;57.750;11.970;2023-12-14T07:31:20;77648.03;;;-142.11;100.00
14800;BME280;7491;57.750;11.970;2023-12-14T07:33:47;77637.81;;;-142.11;100.00
14800;BME280;7491;57.750;11.970;2023-12-14T07:36:14;77645.97;;;-142.11;100.00
14800;BME280;7491;57.750;11.970;2023-12-14T07:38:41;77652.09;;;-142.11;100.00
14800;BME280;7491;57.750;11.970;2023-12-14T07:41:08;77645.97;;;-142.11;100.00
14800;BME280;7491;57.750;11.970;2023-12-14T07:43:34;77633.75;;;-142.11;100.00
14800;BME280;7491;57.750;11.970;2023-12-14T07:46:01;77617.44;;;-142.11;100.00
14800;BME280;7491;57.750;11.970;2023-12-14T07:48:27;77617.44;;;-142.11;100.00
14800;BME280;7491;57.750;11.970;2023-12-14T07:50:56;77619.47;;;-142.11;100.00
14800;BME280;7491;57.750;11.970;2023-12-14T07:53:22;77631.69;;;-142.11;100.00
14800;BME280;7491;57.750;11.970;2023-12-14T07:55:50;77656.19;;;-142.11;100.00
14800;BME280;7491;57.750;11.970;2023-12-14T07:58:16;77664.34;;;-142.11;100.00
14800;BME280;7491;57.750;11.970;2023-12-14T08:00:43;77637.81;;;-142.11;100.00
14800;BME280;7491;57.750;11.970;2023-12-14T08:03:09;77658.22;;;-142.11;100.00
14800;BME280;7491;57.750;11.970;2023-12-14T08:05:36;77654.13;;;-142.11;100.00
14800;BME280;7491;57.750;11.970;2023-12-14T08:08:04;77654.13;;;-142.11;100.00
14800;BME280;7491;57.750;11.970;2023-12-14T08:10:31;77637.81;;;-142.11;100.00
14800;BME280;7491;57.750;11.970;2023-12-14T08:12:57;77631.69;;;-142.11;100.00
14800;BME280;7491;57.750;11.970;2023-12-14T08:15:24;77658.22;;;-142.11;100.00
14800;BME280;7491;57.750;11.970;2023-12-14T08:17:50;77670.44;;;-142.11;100.00
14800;BME280;7491;57.750;11.970;2023-12-14T08:20:17;77680.66;;;-142.11;100.00
14800;BME280;7491;57.750;11.970;2023-12-14T08:22:44;77684.72;;;-142.11;100.00
14800;BME280;7491;57.750;11.970;2023-12-14T08:25:13;77707.16;;;-142.11;100.00
14800;BME280;7491;57.750;11.970;2023-12-14T08:27:40;77678.59;;;-142.11;100.00
14800;BME280;7491;57.750;11.970;2023-12-14T08:30:08;77662.28;;;-142.11;100.00
14800;BME280;7491;57.750;11.970;2023-12-14T08:32:35;77690.84;;;-142.11;100.00
14800;BME280;7491;57.750;11.970;2023-12-14T08:35:03;77682.69;;;-142.11;100.00
14800;BME280;7491;57.750;11.970;2023-12-14T08:37:29;77705.13;;;-142.11;100.00
14800;BME280;7491;57.750;11.970;2023-12-14T08:39:56;77696.97;;;-142.11;100.00
14800;BME280;7491;57.750;11.970;2023-12-14T08:42:24;77676.56;;;-142.11;100.00
14800;BME280;7491;57.750;11.970;2023-12-14T08:44:51;77688.81;;;-142.11;100.00
14800;BME280;7491;57.750;11.970;2023-12-14T08:47:17;77696.97;;;-142.11;100.00
14800;BME280;7491;57.750;11.970;2023-12-14T08:49:44;77701.03;;;-142.11;100.00
14800;BME280;7491;57.750;11.970;2023-12-14T08:52:10;77703.09;;;-142.11;100.00
14800;BME280;7491;57.750;11.970;2023-12-14T08:54:37;77703.09;;;-142.11;100.00
14800;BME280;7491;57.750;11.970;2023-12-14T08:57:04;77701.03;;;-142.11;100.00
14800;BME280;7491;57.750;11.970;2023-12-14T08:59:32;77684.72;;;-142.11;100.00
14800;BME280;7491;57.750;11.970;2023-12-14T09:01:58;77688.81;;;-142.11;100.00
14800;BME280;7491;57.750;11.970;2023-12-14T09:04:25;77680.66;;;-142.11;100.00
14800;BME280;7491;57.750;11.970;2023-12-14T09:06:52;77715.31;;;-142.11;100.00
14800;BME280;7491;57.750;11.970;2023-12-14T09:09:19;77705.13;;;-142.11;100.00
14800;BME280;7491;57.750;11.970;2023-12-14T09:11:45;77684.72;;;-142.11;100.00
14800;BME280;7491;57.750;11.970;2023-12-14T09:14:12;77696.97;;;-142.11;100.00
14800;BME280;7491;57.750;11.970;2023-12-14T09:16:40;77694.91;;;-142.11;100.00
14800;BME280;7491;57.750;11.970;2023-12-14T09:19:07;77696.97;;;-142.11;100.00
14800;BME280;7491;57.750;11.970;2023-12-14T09:21:33;77709.19;;;-142.11;100.00
14800;BME280;7491;57.750;11.970;2023-12-14T09:24:00;77715.31;;;-142.11;100.00
14800;BME280;7491;57.750;11.970;2023-12-14T09:26:26;77713.28;;;-142.11;100.00
14800;BME280;7491;57.750;11.970;2023-12-14T09:28:53;77713.28;;;-142.11;100.00
14800;BME280;7491;57.750;11.970;2023-12-14T09:31:20;77721.44;;;-142.11;100.00
14800;BME280;7491;57.750;11.970;2023-12-14T09:33:47;77731.63;;;-142.11;100.00
14800;BME280;7491;57.750;11.970;2023-12-14T09:36:14;77711.25;;;-142.11;100.00
14800;BME280;7491;57.750;11.970;2023-12-14T09:38:41;77707.16;;;-142.11;100.00
14800;BME280;7491;57.750;11.970;2023-12-14T09:41:08;77723.47;;;-142.11;100.00
14800;BME280;7491;57.750;11.970;2023-12-14T09:43:34;77752.03;;;-142.11;100.00
14800;BME280;7491;57.750;11.970;2023-12-14T09:46:01;77750.00;;;-142.11;100.00
14800;BME280;7491;57.750;11.970;2023-12-14T09:48:28;77729.59;;;-142.11;100.00
14800;BME280;7491;57.750;11.970;2023-12-14T09:50:57;77741.84;;;-142.11;100.00
14800;BME280;7491;57.750;11.970;2023-12-14T09:53:23;77725.50;;;-142.11;100.00
14800;BME280;7491;57.750;11.970;2023-12-14T09:55:50;77743.88;;;-142.11;100.00
14800;BME280;7491;57.750;11.970;2023-12-14T09:58:17;77707.16;;;-142.11;100.00
14800;BME280;7491;57.750;11.970;2023-12-14T10:00:43;77701.03;;;-142.11;100.00
14800;BME280;7491;57.750;11.970;2023-12-14T10:03:23;77701.03;;;-142.11;100.00
14800;BME280;7491;57.750;11.970;2023-12-14T10:05:52;77713.28;;;-142.11;100.00
14800;BME280;7491;57.750;11.970;2023-12-14T10:08:20;77721.44;;;-142.11;100.00
14800;BME280;7491;57.750;11.970;2023-12-14T10:10:48;77705.13;;;-142.11;100.00
14800;BME280;7491;57.750;11.970;2023-12-14T10:13:16;77723.47;;;-142.11;100.00
14800;BME280;7491;57.750;11.970;2023-12-14T10:15:44;77727.56;;;-142.11;100.00
14800;BME280;7491;57.750;11.970;2023-12-14T10:18:12;77727.56;;;-142.11;100.00
14800;BME280;7491;57.750;11.970;2023-12-14T10:20:39;77719.41;;;-142.11;100.00
14800;BME280;7491;57.750;11.970;2023-12-14T10:23:06;77717.34;;;-142.11;100.00
14800;BME280;7491;57.750;11.970;2023-12-14T10:25:35;77688.81;;;-142.11;100.00
14800;BME280;7491;57.750;11.970;2023-12-14T10:28:02;77686.75;;;-142.11;100.00
14800;BME280;7491;57.750;11.970;2023-12-14T10:30:29;77692.88;;;-142.11;100.00
14800;BME280;7491;57.750;11.970;2023-12-14T10:32:56;77733.66;;;-142.11;100.00
14800;BME280;7491;57.750;11.970;2023-12-14T10:35:23;77727.56;;;-142.11;100.00
14800;BME280;7491;57.750;11.970;2023-12-14T10:37:51;77735.72;;;-142.11;100.00
14800;BME280;7491;57.750;11.970;2023-12-14T10:40:18;77723.47;;;-142.11;100.00
14800;BME280;7491;57.750;11.970;2023-12-14T10:42:47;77739.78;;;-142.11;100.00
14800;BME280;7491;57.750;11.970;2023-12-14T10:45:16;77741.84;;;-142.11;100.00
14800;BME280;7491;57.750;11.970;2023-12-14T10:47:44;77747.94;;;-142.11;100.00
14800;BME280;7491;57.750;11.970;2023-12-14T10:50:12;77731.63;;;-142.11;100.00
14800;BME280;7491;57.750;11.970;2023-12-14T10:52:39;77731.63;;;-142.11;100.00
14800;BME280;7491;57.750;11.970;2023-12-14T10:55:09;77705.13;;;-142.11;100.00
14800;BME280;7491;57.750;11.970;2023-12-14T10:57:38;77711.25;;;-142.11;100.00
14800;BME280;7491;57.750;11.970;2023-12-14T11:00:07;77703.09;;;-142.11;100.00
14800;BME280;7491;57.750;11.970;2023-12-14T11:02:39;77694.91;;;-142.11;100.00
14800;BME280;7491;57.750;11.970;2023-12-14T11:05:08;77690.84;;;-142.11;100.00
14800;BME280;7491;57.750;11.970;2023-12-14T11:07:45;77705.13;;;-142.11;100.00
14800;BME280;7491;57.750;11.970;2023-12-14T11:10:12;77707.16;;;-142.11;100.00
14800;BME280;7491;57.750;11.970;2023-12-14T11:12:54;77696.97;;;-142.11;100.00
14800;BME280;7491;57.750;11.970;2023-12-14T11:15:24;77719.41;;;-142.11;100.00
14800;BME280;7491;57.750;11.970;2023-12-14T11:18:25;77692.88;;;-142.11;100.00
14800;BME280;7491;57.750;11.970;2023-12-14T11:20:54;77694.91;;;-142.11;100.00
14800;BME280;7491;57.750;11.970;2023-12-14T11:23:32;77701.03;;;-142.11;100.00
14800;BME280;7491;57.750;11.970;2023-12-14T11:26:01;77692.88;;;-142.11;100.00
14800;BME280;7491;57.750;11.970;2023-12-14T11:28:30;77668.41;;;-142.11;100.00
14800;BME280;7491;57.750;11.970;2023-12-14T11:30:58;77664.34;;;-142.11;100.00
14800;BME280;7491;57.750;11.970;2023-12-14T11:33:26;77696.97;;;-142.11;100.00
14800;BME280;7491;57.750;11.970;2023-12-14T11:35:54;77696.97;;;-142.11;100.00
14800;BME280;7491;57.750;11.970;2023-12-14T11:38:21;77705.13;;;-142.11;100.00
14800;BME280;7491;57.750;11.970;2023-12-14T11:40:49;77696.97;;;-142.11;100.00
14800;BME280;7491;57.750;11.970;2023-12-14T11:43:16;77688.81;;;-142.11;100.00
14800;BME280;7491;57.750;11.970;2023-12-14T11:45:45;77670.44;;;-142.11;100.00
14800;BME280;7491;57.750;11.970;2023-12-14T11:48:13;77674.53;;;-142.11;100.00
14800;BME280;7491;57.750;11.970;2023-12-14T11:50:41;77664.34;;;-142.11;100.00
14800;BME280;7491;57.750;11.970;2023-12-14T11:53:08;77670.44;;;-142.11;100.00
14800;BME280;7491;57.750;11.970;2023-12-14T11:55:37;77658.22;;;-142.11;100.00
14800;BME280;7491;57.750;11.970;2023-12-14T11:58:04;77656.19;;;-142.11;100.00
14800;BME280;7491;57.750;11.970;2023-12-14T12:00:31;77668.41;;;-142.11;100.00
14800;BME280;7491;57.750;11.970;2023-12-14T12:03:11;77690.84;;;-142.11;100.00
14800;BME280;7491;57.750;11.970;2023-12-14T12:05:41;77672.50;;;-142.11;100.00
14800;BME280;7491;57.750;11.970;2023-12-14T12:08:08;77656.19;;;-142.11;100.00
14800;BME280;7491;57.750;11.970;2023-12-14T12:10:36;77650.06;;;-142.11;100.00
14800;BME280;7491;57.750;11.970;2023-12-14T12:13:07;77652.09;;;-142.11;100.00
14800;BME280;7491;57.750;11.970;2023-12-14T12:15:34;77670.44;;;-142.11;100.00
14800;BME280;7491;57.750;11.970;2023-12-14T12:18:03;77662.28;;;-142.11;100.00
14800;BME280;7491;57.750;11.970;2023-12-14T12:20:30;77660.25;;;-142.11;100.00
14800;BME280;7491;57.750;11.970;2023-12-14T12:22:59;77670.44;;;-142.11;100.00
14800;BME280;7491;57.750;11.970;2023-12-14T12:25:25;77680.66;;;-142.11;100.00
14800;BME280;7491;57.750;11.970;2023-12-14T12:27:53;77648.03;;;-142.11;100.00
14800;BME280;7491;57.750;11.970;2023-12-14T12:30:19;77672.50;;;-142.11;100.00